sensor_id;sensor_type;location;lat;lon;timestamp;P1;durP1;ratioP1;P2;durP2;ratioP2
54517;SDS011;40423;53.176;6.002;2022-12-10T00:01:36;84.40;;;40.05;;
54517;SDS011;40423;53.176;6.002;2022-12-10T00:03:56;82.78;;;40.53;;
54517;SDS011;40423;53.176;6.002;2022-12-10T00:06:23;82.68;;;39.35;;
54517;SDS011;40423;53.176;6.002;2022-12-10T00:08:52;81.50;;;38.33;;
54517;SDS011;40423;53.176;6.002;2022-12-10T00:11:18;85.90;;;41.63;;
54517;SDS011;40423;53.176;6.002;2022-12-10T00:13:46;84.50;;;37.70;;
54517;SDS011;40423;53.176;6.002;2022-12-10T00:16:13;87.68;;;40.13;;
54517;SDS011;40423;53.176;6.002;2022-12-10T00:18:40;85.22;;;40.25;;
54517;SDS011;40423;53.176;6.002;2022-12-10T00:21:08;84.57;;;40.17;;
54517;SDS011;40423;53.176;6.002;2022-12-10T00:23:36;83.47;;;39.78;;
54517;SDS011;40423;53.176;6.002;2022-12-10T00:26:06;91.20;;;40.80;;
54517;SDS011;40423;53.176;6.002;2022-12-10T00:28:37;95.35;;;41.00;;
54517;SDS011;40423;53.176;6.002;2022-12-10T00:31:07;89.97;;;43.05;;
54517;SDS011;40423;53.176;6.002;2022-12-10T00:33:36;93.15;;;41.63;;
54517;SDS011;40423;53.176;6.002;2022-12-10T00:36:03;89.35;;;39.67;;
54517;SDS011;40423;53.176;6.002;2022-12-10T00:38:34;97.10;;;43.25;;
54517;SDS011;40423;53.176;6.002;2022-12-10T00:41:00;89.13;;;39.75;;
54517;SDS011;40423;53.176;6.002;2022-12-10T00:43:26;88.43;;;41.13;;
54517;SDS011;40423;53.176;6.002;2022-12-10T00:45:52;90.97;;;41.45;;
54517;SDS011;40423;53.176;6.002;2022-12-10T00:48:18;96.75;;;41.83;;
54517;SDS011;40423;53.176;6.002;2022-12-10T00:50:44;86.45;;;40.38;;
54517;SDS011;40423;53.176;6.002;2022-12-10T00:53:19;95.20;;;43.90;;
54517;SDS011;40423;53.176;6.002;2022-12-10T00:55:44;90.15;;;41.90;;
54517;SDS011;40423;53.176;6.002;2022-12-10T00:58:10;84.22;;;39.08;;
54517;SDS011;40423;53.176;6.002;2022-12-10T01:00:36;95.07;;;41.38;;
54517;SDS011;40423;53.176;6.002;2022-12-10T01:03:01;90.95;;;42.15;;
54517;SDS011;40423;53.176;6.002;2022-12-10T01:05:27;95.20;;;42.72;;
54517;SDS011;40423;53.176;6.002;2022-12-10T01:07:53;105.97;;;44.65;;
54517;SDS011;40423;53.176;6.002;2022-12-10T01:10:18;92.97;;;42.20;;
54517;SDS011;40423;53.176;6.002;2022-12-10T01:12:44;100.20;;;43.92;;
54517;SDS011;40423;53.176;6.002;2022-12-10T01:15:11;100.53;;;41.60;;
54517;SDS011;40423;53.176;6.002;2022-12-10T01:17:36;102.05;;;43.58;;
54517;SDS011;40423;53.176;6.002;2022-12-10T01:20:02;97.80;;;43.13;;
54517;SDS011;40423;53.176;6.002;2022-12-10T01:22:28;96.38;;;42.05;;
54517;SDS011;40423;53.176;6.002;2022-12-10T01:24:54;96.40;;;42.28;;
54517;SDS011;40423;53.176;6.002;2022-12-10T01:27:19;92.78;;;41.28;;
54517;SDS011;40423;53.176;6.002;2022-12-10T01:29:45;96.28;;;41.55;;
54517;SDS011;40423;53.176;6.002;2022-12-10T01:32:11;94.75;;;43.17;;
54517;SDS011;40423;53.176;6.002;2022-12-10T01:34:37;102.95;;;40.95;;
54517;SDS011;40423;53.176;6.002;2022-12-10T01:37:02;101.30;;;42.78;;
54517;SDS011;40423;53.176;6.002;2022-12-10T01:39:28;99.32;;;43.03;;
54517;SDS011;40423;53.176;6.002;2022-12-10T01:41:55;92.22;;;42.28;;
54517;SDS011;40423;53.176;6.002;2022-12-10T01:46:48;98.93;;;44.30;;
54517;SDS011;40423;53.176;6.002;2022-12-10T01:49:17;111.13;;;43.75;;
54517;SDS011;40423;53.176;6.002;2022-12-10T01:51:48;101.55;;;42.40;;
54517;SDS011;40423;53.176;6.002;2022-12-10T01:54:19;112.38;;;44.55;;
54517;SDS011;40423;53.176;6.002;2022-12-10T01:56:50;100.20;;;43.15;;
54517;SDS011;40423;53.176;6.002;2022-12-10T01:59:22;101.68;;;41.95;;
54517;SDS011;40423;53.176;6.002;2022-12-10T02:02:11;100.78;;;42.60;;
54517;SDS011;40423;53.176;6.002;2022-12-10T02:05:17;89.95;;;40.63;;
54517;SDS011;40423;53.176;6.002;2022-12-10T02:07:59;99.03;;;42.75;;
54517;SDS011;40423;53.176;6.002;2022-12-10T02:18:45;97.95;;;43.60;;
54517;SDS011;40423;53.176;6.002;2022-12-10T02:21:24;87.43;;;38.90;;
54517;SDS011;40423;53.176;6.002;2022-12-10T02:23:56;101.05;;;42.17;;
54517;SDS011;40423;53.176;6.002;2022-12-10T02:26:30;101.15;;;44.35;;
54517;SDS011;40423;53.176;6.002;2022-12-10T02:29:10;98.95;;;42.58;;
54517;SDS011;40423;53.176;6.002;2022-12-10T02:31:40;110.72;;;43.92;;
54517;SDS011;40423;53.176;6.002;2022-12-10T02:34:12;107.97;;;45.38;;
54517;SDS011;40423;53.176;6.002;2022-12-10T02:36:41;101.57;;;41.03;;
54517;SDS011;40423;53.176;6.002;2022-12-10T02:39:10;101.85;;;43.80;;
54517;SDS011;40423;53.176;6.002;2022-12-10T02:41:40;97.45;;;41.33;;
54517;SDS011;40423;53.176;6.002;2022-12-10T02:44:09;96.43;;;42.53;;
54517;SDS011;40423;53.176;6.002;2022-12-10T02:46:38;97.88;;;41.60;;
54517;SDS011;40423;53.176;6.002;2022-12-10T02:49:06;92.07;;;39.80;;
54517;SDS011;40423;53.176;6.002;2022-12-10T02:51:33;92.38;;;40.60;;
54517;SDS011;40423;53.176;6.002;2022-12-10T02:53:59;95.00;;;42.92;;
54517;SDS011;40423;53.176;6.002;2022-12-10T02:56:35;85.32;;;40.42;;
54517;SDS011;40423;53.176;6.002;2022-12-10T02:59:19;87.75;;;39.03;;
54517;SDS011;40423;53.176;6.002;2022-12-10T03:05:11;79.43;;;37.75;;
54517;SDS011;40423;53.176;6.002;2022-12-10T03:10:07;84.20;;;36.80;;
54517;SDS011;40423;53.176;6.002;2022-12-10T03:12:43;89.75;;;42.08;;
54517;SDS011;40423;53.176;6.002;2022-12-10T03:15:16;82.68;;;39.00;;
54517;SDS011;40423;53.176;6.002;2022-12-10T03:17:44;97.97;;;43.10;;
54517;SDS011;40423;53.176;6.002;2022-12-10T03:20:12;90.63;;;39.90;;
54517;SDS011;40423;53.176;6.002;2022-12-10T03:22:40;95.68;;;42.75;;
54517;SDS011;40423;53.176;6.002;2022-12-10T03:25:10;91.05;;;41.40;;
54517;SDS011;40423;53.176;6.002;2022-12-10T03:27:42;84.47;;;36.80;;
54517;SDS011;40423;53.176;6.002;2022-12-10T03:30:10;89.18;;;38.97;;
54517;SDS011;40423;53.176;6.002;2022-12-10T03:32:36;94.30;;;42.75;;
54517;SDS011;40423;53.176;6.002;2022-12-10T03:35:02;91.68;;;42.25;;
54517;SDS011;40423;53.176;6.002;2022-12-10T03:37:29;96.40;;;44.67;;
54517;SDS011;40423;53.176;6.002;2022-12-10T03:39:56;96.05;;;42.08;;
54517;SDS011;40423;53.176;6.002;2022-12-10T03:42:23;101.45;;;41.75;;
54517;SDS011;40423;53.176;6.002;2022-12-10T03:44:49;97.65;;;43.50;;
54517;SDS011;40423;53.176;6.002;2022-12-10T03:47:16;98.78;;;40.95;;
54517;SDS011;40423;53.176;6.002;2022-12-10T03:49:43;104.30;;;42.70;;
54517;SDS011;40423;53.176;6.002;2022-12-10T03:52:09;102.97;;;43.72;;
54517;SDS011;40423;53.176;6.002;2022-12-10T03:54:35;145.70;;;47.03;;
54517;SDS011;40423;53.176;6.002;2022-12-10T03:57:00;113.72;;;44.25;;
54517;SDS011;40423;53.176;6.002;2022-12-10T03:59:26;140.77;;;46.90;;
54517;SDS011;40423;53.176;6.002;2022-12-10T04:01:52;120.95;;;43.53;;
54517;SDS011;40423;53.176;6.002;2022-12-10T04:04:18;125.45;;;44.50;;
54517;SDS011;40423;53.176;6.002;2022-12-10T04:06:43;123.45;;;44.30;;
54517;SDS011;40423;53.176;6.002;2022-12-10T04:09:10;170.55;;;46.92;;
54517;SDS011;40423;53.176;6.002;2022-12-10T04:11:37;147.18;;;47.65;;
54517;SDS011;40423;53.176;6.002;2022-12-10T04:14:03;194.43;;;48.35;;
54517;SDS011;40423;53.176;6.002;2022-12-10T04:16:47;175.27;;;49.67;;
54517;SDS011;40423;53.176;6.002;2022-12-10T04:19:13;167.30;;;49.35;;
54517;SDS011;40423;53.176;6.002;2022-12-10T04:21:41;149.68;;;44.55;;
54517;SDS011;40423;53.176;6.002;2022-12-10T04:24:27;148.68;;;47.35;;
54517;SDS011;40423;53.176;6.002;2022-12-10T04:27:17;203.82;;;51.03;;
54517;SDS011;40423;53.176;6.002;2022-12-10T04:29:43;153.63;;;46.47;;
54517;SDS011;40423;53.176;6.002;2022-12-10T04:32:09;184.60;;;49.95;;
54517;SDS011;40423;53.176;6.002;2022-12-10T04:34:35;206.18;;;53.53;;
54517;SDS011;40423;53.176;6.002;2022-12-10T04:37:02;145.88;;;47.60;;
54517;SDS011;40423;53.176;6.002;2022-12-10T04:39:28;203.05;;;52.55;;
54517;SDS011;40423;53.176;6.002;2022-12-10T04:41:55;154.15;;;47.53;;
54517;SDS011;40423;53.176;6.002;2022-12-10T04:44:21;166.77;;;47.88;;
54517;SDS011;40423;53.176;6.002;2022-12-10T04:46:47;143.38;;;48.20;;
54517;SDS011;40423;53.176;6.002;2022-12-10T04:49:13;131.40;;;47.75;;
54517;SDS011;40423;53.176;6.002;2022-12-10T04:51:39;168.68;;;47.30;;
54517;SDS011;40423;53.176;6.002;2022-12-10T04:54:06;167.80;;;47.38;;
54517;SDS011;40423;53.176;6.002;2022-12-10T04:56:32;160.80;;;49.38;;
54517;SDS011;40423;53.176;6.002;2022-12-10T04:58:58;224.00;;;50.70;;
54517;SDS011;40423;53.176;6.002;2022-12-10T05:01:25;241.02;;;51.00;;
54517;SDS011;40423;53.176;6.002;2022-12-10T05:03:52;170.60;;;49.42;;
54517;SDS011;40423;53.176;6.002;2022-12-10T05:06:19;235.23;;;54.63;;
54517;SDS011;40423;53.176;6.002;2022-12-10T05:08:46;218.60;;;51.38;;
54517;SDS011;40423;53.176;6.002;2022-12-10T05:11:13;172.15;;;50.55;;
54517;SDS011;40423;53.176;6.002;2022-12-10T05:13:41;189.88;;;48.47;;
54517;SDS011;40423;53.176;6.002;2022-12-10T05:16:07;189.05;;;48.22;;
54517;SDS011;40423;53.176;6.002;2022-12-10T05:18:35;149.63;;;43.72;;
54517;SDS011;40423;53.176;6.002;2022-12-10T05:21:03;161.98;;;43.42;;
54517;SDS011;40423;53.176;6.002;2022-12-10T05:23:31;299.75;;;51.00;;
54517;SDS011;40423;53.176;6.002;2022-12-10T05:26:04;305.40;;;52.08;;
54517;SDS011;40423;53.176;6.002;2022-12-10T05:28:54;231.60;;;43.15;;
54517;SDS011;40423;53.176;6.002;2022-12-10T05:31:22;181.30;;;39.72;;
54517;SDS011;40423;53.176;6.002;2022-12-10T05:33:49;243.70;;;42.00;;
54517;SDS011;40423;53.176;6.002;2022-12-10T05:36:16;286.30;;;47.90;;
54517;SDS011;40423;53.176;6.002;2022-12-10T05:38:44;122.95;;;33.03;;
54517;SDS011;40423;53.176;6.002;2022-12-10T05:41:12;224.60;;;41.42;;
54517;SDS011;40423;53.176;6.002;2022-12-10T05:43:40;153.82;;;35.85;;
54517;SDS011;40423;53.176;6.002;2022-12-10T05:46:08;174.80;;;34.40;;
54517;SDS011;40423;53.176;6.002;2022-12-10T05:48:36;180.05;;;35.03;;
54517;SDS011;40423;53.176;6.002;2022-12-10T05:51:06;145.68;;;33.40;;
54517;SDS011;40423;53.176;6.002;2022-12-10T05:53:33;164.20;;;34.30;;
54517;SDS011;40423;53.176;6.002;2022-12-10T05:56:00;203.48;;;38.70;;
54517;SDS011;40423;53.176;6.002;2022-12-10T05:58:27;132.57;;;32.55;;
54517;SDS011;40423;53.176;6.002;2022-12-10T06:00:54;159.88;;;33.28;;
54517;SDS011;40423;53.176;6.002;2022-12-10T06:03:24;112.38;;;31.42;;
54517;SDS011;40423;53.176;6.002;2022-12-10T06:05:51;166.88;;;39.40;;
54517;SDS011;40423;53.176;6.002;2022-12-10T06:08:17;222.27;;;42.45;;
54517;SDS011;40423;53.176;6.002;2022-12-10T06:10:42;165.68;;;41.45;;
54517;SDS011;40423;53.176;6.002;2022-12-10T06:13:08;163.10;;;37.80;;
54517;SDS011;40423;53.176;6.002;2022-12-10T06:15:37;174.82;;;38.53;;
54517;SDS011;40423;53.176;6.002;2022-12-10T06:18:05;155.63;;;36.35;;
54517;SDS011;40423;53.176;6.002;2022-12-10T06:20:31;121.53;;;31.90;;
54517;SDS011;40423;53.176;6.002;2022-12-10T06:22:57;191.43;;;39.72;;
54517;SDS011;40423;53.176;6.002;2022-12-10T06:25:23;175.82;;;39.30;;
54517;SDS011;40423;53.176;6.002;2022-12-10T06:27:49;198.40;;;39.88;;
54517;SDS011;40423;53.176;6.002;2022-12-10T06:30:15;153.05;;;34.30;;
54517;SDS011;40423;53.176;6.002;2022-12-10T06:32:43;157.77;;;36.33;;
54517;SDS011;40423;53.176;6.002;2022-12-10T06:35:09;135.52;;;34.67;;
54517;SDS011;40423;53.176;6.002;2022-12-10T06:37:35;127.40;;;31.90;;
54517;SDS011;40423;53.176;6.002;2022-12-10T06:40:01;238.23;;;43.55;;
54517;SDS011;40423;53.176;6.002;2022-12-10T06:42:27;114.38;;;30.80;;
54517;SDS011;40423;53.176;6.002;2022-12-10T06:44:53;192.52;;;36.15;;
54517;SDS011;40423;53.176;6.002;2022-12-10T06:47:19;116.47;;;28.92;;
54517;SDS011;40423;53.176;6.002;2022-12-10T06:49:44;158.02;;;33.67;;
54517;SDS011;40423;53.176;6.002;2022-12-10T06:52:10;209.27;;;36.92;;
54517;SDS011;40423;53.176;6.002;2022-12-10T06:54:36;122.45;;;30.27;;
54517;SDS011;40423;53.176;6.002;2022-12-10T06:57:02;159.50;;;31.02;;
54517;SDS011;40423;53.176;6.002;2022-12-10T06:59:28;211.48;;;35.20;;
54517;SDS011;40423;53.176;6.002;2022-12-10T07:01:53;184.48;;;33.60;;
54517;SDS011;40423;53.176;6.002;2022-12-10T07:04:19;286.60;;;40.47;;
54517;SDS011;40423;53.176;6.002;2022-12-10T07:06:45;205.20;;;34.10;;
54517;SDS011;40423;53.176;6.002;2022-12-10T07:09:10;207.40;;;33.88;;
54517;SDS011;40423;53.176;6.002;2022-12-10T07:11:36;124.68;;;26.70;;
54517;SDS011;40423;53.176;6.002;2022-12-10T07:14:02;165.27;;;30.05;;
54517;SDS011;40423;53.176;6.002;2022-12-10T07:16:29;207.88;;;34.38;;
54517;SDS011;40423;53.176;6.002;2022-12-10T07:19:01;133.13;;;27.88;;
54517;SDS011;40423;53.176;6.002;2022-12-10T07:21:31;122.10;;;28.83;;
54517;SDS011;40423;53.176;6.002;2022-12-10T07:24:06;135.95;;;30.80;;
54517;SDS011;40423;53.176;6.002;2022-12-10T07:26:38;196.85;;;30.88;;
54517;SDS011;40423;53.176;6.002;2022-12-10T07:29:06;123.35;;;29.13;;
54517;SDS011;40423;53.176;6.002;2022-12-10T07:31:35;163.52;;;29.88;;
54517;SDS011;40423;53.176;6.002;2022-12-10T07:34:01;127.43;;;27.08;;
54517;SDS011;40423;53.176;6.002;2022-12-10T07:36:26;174.20;;;27.55;;
54517;SDS011;40423;53.176;6.002;2022-12-10T07:38:53;205.57;;;31.05;;
54517;SDS011;40423;53.176;6.002;2022-12-10T07:41:19;191.52;;;32.72;;
54517;SDS011;40423;53.176;6.002;2022-12-10T07:43:45;239.30;;;35.60;;
54517;SDS011;40423;53.176;6.002;2022-12-10T07:46:13;188.63;;;31.75;;
54517;SDS011;40423;53.176;6.002;2022-12-10T07:48:47;144.98;;;30.48;;
54517;SDS011;40423;53.176;6.002;2022-12-10T07:51:14;206.95;;;36.33;;
54517;SDS011;40423;53.176;6.002;2022-12-10T07:53:41;163.43;;;30.45;;
54517;SDS011;40423;53.176;6.002;2022-12-10T07:56:07;149.23;;;31.85;;
54517;SDS011;40423;53.176;6.002;2022-12-10T07:58:32;213.13;;;36.97;;
54517;SDS011;40423;53.176;6.002;2022-12-10T08:00:58;130.48;;;29.67;;
54517;SDS011;40423;53.176;6.002;2022-12-10T08:03:24;183.93;;;34.47;;
54517;SDS011;40423;53.176;6.002;2022-12-10T08:06:12;200.45;;;34.30;;
54517;SDS011;40423;53.176;6.002;2022-12-10T08:08:38;195.57;;;35.47;;
54517;SDS011;40423;53.176;6.002;2022-12-10T08:11:05;196.50;;;33.88;;
54517;SDS011;40423;53.176;6.002;2022-12-10T08:13:31;189.27;;;33.88;;
54517;SDS011;40423;53.176;6.002;2022-12-10T08:16:10;146.25;;;30.65;;
54517;SDS011;40423;53.176;6.002;2022-12-10T08:18:38;314.02;;;45.42;;
54517;SDS011;40423;53.176;6.002;2022-12-10T08:21:08;134.95;;;28.95;;
54517;SDS011;40423;53.176;6.002;2022-12-10T08:23:36;208.88;;;34.55;;
54517;SDS011;40423;53.176;6.002;2022-12-10T08:26:02;151.75;;;31.88;;
54517;SDS011;40423;53.176;6.002;2022-12-10T08:28:31;169.48;;;31.88;;
54517;SDS011;40423;53.176;6.002;2022-12-10T08:30:58;176.27;;;32.67;;
54517;SDS011;40423;53.176;6.002;2022-12-10T08:33:24;214.38;;;34.50;;
54517;SDS011;40423;53.176;6.002;2022-12-10T08:35:50;126.40;;;30.67;;
54517;SDS011;40423;53.176;6.002;2022-12-10T08:38:15;183.00;;;33.20;;
54517;SDS011;40423;53.176;6.002;2022-12-10T08:40:41;183.80;;;31.17;;
54517;SDS011;40423;53.176;6.002;2022-12-10T08:43:07;134.10;;;30.48;;
54517;SDS011;40423;53.176;6.002;2022-12-10T08:45:33;184.23;;;32.35;;
54517;SDS011;40423;53.176;6.002;2022-12-10T08:48:00;161.18;;;30.67;;
54517;SDS011;40423;53.176;6.002;2022-12-10T08:50:27;224.60;;;35.13;;
54517;SDS011;40423;53.176;6.002;2022-12-10T08:52:53;164.10;;;29.92;;
54517;SDS011;40423;53.176;6.002;2022-12-10T08:55:19;144.90;;;29.45;;
54517;SDS011;40423;53.176;6.002;2022-12-10T08:57:44;158.15;;;29.52;;
54517;SDS011;40423;53.176;6.002;2022-12-10T09:00:10;179.43;;;32.25;;
54517;SDS011;40423;53.176;6.002;2022-12-10T09:02:38;136.57;;;29.75;;
54517;SDS011;40423;53.176;6.002;2022-12-10T09:05:04;156.38;;;30.27;;
54517;SDS011;40423;53.176;6.002;2022-12-10T09:07:31;156.75;;;29.95;;
54517;SDS011;40423;53.176;6.002;2022-12-10T09:09:56;238.23;;;35.17;;
54517;SDS011;40423;53.176;6.002;2022-12-10T09:12:22;159.85;;;28.17;;
54517;SDS011;40423;53.176;6.002;2022-12-10T09:14:48;132.40;;;28.83;;
54517;SDS011;40423;53.176;6.002;2022-12-10T09:17:14;152.32;;;30.33;;
54517;SDS011;40423;53.176;6.002;2022-12-10T09:19:40;157.13;;;33.15;;
54517;SDS011;40423;53.176;6.002;2022-12-10T09:22:05;178.23;;;32.58;;
54517;SDS011;40423;53.176;6.002;2022-12-10T09:24:31;167.48;;;32.33;;
54517;SDS011;40423;53.176;6.002;2022-12-10T09:26:57;121.35;;;25.60;;
54517;SDS011;40423;53.176;6.002;2022-12-10T09:29:22;150.77;;;29.65;;
54517;SDS011;40423;53.176;6.002;2022-12-10T09:31:51;131.23;;;28.75;;
54517;SDS011;40423;53.176;6.002;2022-12-10T09:34:17;129.65;;;29.85;;
54517;SDS011;40423;53.176;6.002;2022-12-10T09:36:43;234.32;;;33.60;;
54517;SDS011;40423;53.176;6.002;2022-12-10T09:39:09;186.60;;;31.10;;
54517;SDS011;40423;53.176;6.002;2022-12-10T09:41:51;117.93;;;26.55;;
54517;SDS011;40423;53.176;6.002;2022-12-10T09:47:09;171.10;;;29.15;;
54517;SDS011;40423;53.176;6.002;2022-12-10T09:52:32;158.25;;;29.25;;
54517;SDS011;40423;53.176;6.002;2022-12-10T09:55:03;104.13;;;25.08;;
54517;SDS011;40423;53.176;6.002;2022-12-10T09:57:37;111.50;;;25.20;;
54517;SDS011;40423;53.176;6.002;2022-12-10T10:00:15;130.30;;;25.50;;
54517;SDS011;40423;53.176;6.002;2022-12-10T10:02:45;106.75;;;28.13;;
54517;SDS011;40423;53.176;6.002;2022-12-10T10:05:13;99.07;;;25.35;;
54517;SDS011;40423;53.176;6.002;2022-12-10T10:07:48;143.70;;;27.05;;
54517;SDS011;40423;53.176;6.002;2022-12-10T10:10:33;103.68;;;24.95;;
54517;SDS011;40423;53.176;6.002;2022-12-10T10:15:33;100.78;;;25.52;;
54517;SDS011;40423;53.176;6.002;2022-12-10T10:20:38;145.32;;;27.73;;
54517;SDS011;40423;53.176;6.002;2022-12-10T10:23:05;103.72;;;26.35;;
54517;SDS011;40423;53.176;6.002;2022-12-10T10:25:31;114.75;;;25.80;;
54517;SDS011;40423;53.176;6.002;2022-12-10T10:27:57;105.25;;;25.15;;
54517;SDS011;40423;53.176;6.002;2022-12-10T10:30:23;159.60;;;29.23;;
54517;SDS011;40423;53.176;6.002;2022-12-10T10:32:51;140.32;;;27.33;;
54517;SDS011;40423;53.176;6.002;2022-12-10T10:35:22;122.65;;;26.08;;
54517;SDS011;40423;53.176;6.002;2022-12-10T10:38:06;119.38;;;25.38;;
54517;SDS011;40423;53.176;6.002;2022-12-10T10:40:43;115.75;;;25.40;;
54517;SDS011;40423;53.176;6.002;2022-12-10T10:43:22;107.50;;;25.70;;
54517;SDS011;40423;53.176;6.002;2022-12-10T10:46:06;78.60;;;22.20;;
54517;SDS011;40423;53.176;6.002;2022-12-10T10:48:40;104.88;;;25.70;;
54517;SDS011;40423;53.176;6.002;2022-12-10T10:58:50;188.75;;;32.15;;
54517;SDS011;40423;53.176;6.002;2022-12-10T11:01:24;110.72;;;23.50;;
54517;SDS011;40423;53.176;6.002;2022-12-10T11:03:57;97.47;;;24.50;;
54517;SDS011;40423;53.176;6.002;2022-12-10T11:06:24;176.98;;;27.73;;
54517;SDS011;40423;53.176;6.002;2022-12-10T11:08:51;152.52;;;28.92;;
54517;SDS011;40423;53.176;6.002;2022-12-10T11:11:25;105.00;;;23.48;;
54517;SDS011;40423;53.176;6.002;2022-12-10T11:14:13;129.82;;;26.60;;
54517;SDS011;40423;53.176;6.002;2022-12-10T11:16:54;120.32;;;26.02;;
54517;SDS011;40423;53.176;6.002;2022-12-10T11:19:41;116.45;;;27.33;;
54517;SDS011;40423;53.176;6.002;2022-12-10T11:22:16;160.13;;;31.67;;
54517;SDS011;40423;53.176;6.002;2022-12-10T11:24:46;112.05;;;27.20;;
54517;SDS011;40423;53.176;6.002;2022-12-10T11:27:13;124.18;;;26.42;;
54517;SDS011;40423;53.176;6.002;2022-12-10T11:32:57;94.45;;;25.90;;
54517;SDS011;40423;53.176;6.002;2022-12-10T11:44:19;123.13;;;28.63;;
54517;SDS011;40423;53.176;6.002;2022-12-10T12:06:20;107.38;;;29.13;;
54517;SDS011;40423;53.176;6.002;2022-12-10T12:11:55;137.48;;;32.22;;
54517;SDS011;40423;53.176;6.002;2022-12-10T12:14:48;104.70;;;29.58;;
54517;SDS011;40423;53.176;6.002;2022-12-10T12:17:27;108.97;;;30.25;;
54517;SDS011;40423;53.176;6.002;2022-12-10T12:20:57;122.30;;;30.50;;
54517;SDS011;40423;53.176;6.002;2022-12-10T12:23:19;94.57;;;30.88;;
54517;SDS011;40423;53.176;6.002;2022-12-10T12:26:06;93.95;;;30.27;;
54517;SDS011;40423;53.176;6.002;2022-12-10T12:28:51;90.50;;;31.00;;
54517;SDS011;40423;53.176;6.002;2022-12-10T12:31:31;100.40;;;29.60;;
54517;SDS011;40423;53.176;6.002;2022-12-10T12:34:11;100.60;;;28.48;;
54517;SDS011;40423;53.176;6.002;2022-12-10T12:36:57;84.25;;;29.48;;
54517;SDS011;40423;53.176;6.002;2022-12-10T12:47:41;103.03;;;34.80;;
54517;SDS011;40423;53.176;6.002;2022-12-10T12:53:14;118.28;;;30.80;;
54517;SDS011;40423;53.176;6.002;2022-12-10T13:03:52;112.53;;;33.38;;
54517;SDS011;40423;53.176;6.002;2022-12-10T13:11:43;114.90;;;31.48;;
54517;SDS011;40423;53.176;6.002;2022-12-10T13:14:33;106.32;;;31.65;;
54517;SDS011;40423;53.176;6.002;2022-12-10T13:17:05;95.70;;;32.47;;
54517;SDS011;40423;53.176;6.002;2022-12-10T13:19:49;108.15;;;37.35;;
54517;SDS011;40423;53.176;6.002;2022-12-10T13:27:39;106.05;;;31.73;;
54517;SDS011;40423;53.176;6.002;2022-12-10T13:37:33;98.93;;;34.13;;
54517;SDS011;40423;53.176;6.002;2022-12-10T13:40:00;92.57;;;30.05;;
54517;SDS011;40423;53.176;6.002;2022-12-10T13:42:50;85.28;;;30.15;;
54517;SDS011;40423;53.176;6.002;2022-12-10T13:45:41;93.00;;;31.55;;
54517;SDS011;40423;53.176;6.002;2022-12-10T13:50:49;102.18;;;31.90;;
54517;SDS011;40423;53.176;6.002;2022-12-10T13:53:38;108.18;;;36.22;;
54517;SDS011;40423;53.176;6.002;2022-12-10T13:56:28;79.00;;;29.58;;
54517;SDS011;40423;53.176;6.002;2022-12-10T14:01:46;108.85;;;36.92;;
54517;SDS011;40423;53.176;6.002;2022-12-10T14:04:18;89.65;;;32.90;;
54517;SDS011;40423;53.176;6.002;2022-12-10T14:07:02;100.68;;;34.40;;
54517;SDS011;40423;53.176;6.002;2022-12-10T14:09:31;118.40;;;40.70;;
54517;SDS011;40423;53.176;6.002;2022-12-10T14:14:30;107.43;;;37.88;;
54517;SDS011;40423;53.176;6.002;2022-12-10T14:17:00;166.82;;;49.35;;
54517;SDS011;40423;53.176;6.002;2022-12-10T14:19:30;142.25;;;41.03;;
54517;SDS011;40423;53.176;6.002;2022-12-10T14:21:57;125.47;;;41.85;;
54517;SDS011;40423;53.176;6.002;2022-12-10T14:24:31;106.32;;;37.38;;
54517;SDS011;40423;53.176;6.002;2022-12-10T14:27:01;87.65;;;32.28;;
54517;SDS011;40423;53.176;6.002;2022-12-10T14:29:43;112.68;;;38.88;;
54517;SDS011;40423;53.176;6.002;2022-12-10T14:32:12;112.78;;;37.17;;
54517;SDS011;40423;53.176;6.002;2022-12-10T14:34:40;113.95;;;38.70;;
54517;SDS011;40423;53.176;6.002;2022-12-10T14:37:06;115.00;;;41.53;;
54517;SDS011;40423;53.176;6.002;2022-12-10T14:39:38;119.90;;;40.58;;
54517;SDS011;40423;53.176;6.002;2022-12-10T14:42:05;156.68;;;43.20;;
54517;SDS011;40423;53.176;6.002;2022-12-10T14:44:36;95.07;;;35.75;;
54517;SDS011;40423;53.176;6.002;2022-12-10T14:47:19;106.40;;;40.88;;
54517;SDS011;40423;53.176;6.002;2022-12-10T14:49:46;137.82;;;50.45;;
54517;SDS011;40423;53.176;6.002;2022-12-10T14:52:19;164.88;;;50.40;;
54517;SDS011;40423;53.176;6.002;2022-12-10T14:54:46;138.52;;;48.65;;
54517;SDS011;40423;53.176;6.002;2022-12-10T14:57:35;126.25;;;41.42;;
54517;SDS011;40423;53.176;6.002;2022-12-10T15:02:39;127.93;;;40.55;;
54517;SDS011;40423;53.176;6.002;2022-12-10T15:05:16;149.63;;;44.03;;
54517;SDS011;40423;53.176;6.002;2022-12-10T15:10:20;142.85;;;48.00;;
54517;SDS011;40423;53.176;6.002;2022-12-10T15:12:50;106.15;;;36.50;;
54517;SDS011;40423;53.176;6.002;2022-12-10T15:15:18;188.45;;;54.38;;
54517;SDS011;40423;53.176;6.002;2022-12-10T15:20:46;128.57;;;41.72;;
54517;SDS011;40423;53.176;6.002;2022-12-10T15:25:47;129.75;;;42.05;;
54517;SDS011;40423;53.176;6.002;2022-12-10T15:28:31;112.45;;;37.58;;
54517;SDS011;40423;53.176;6.002;2022-12-10T15:41:40;125.13;;;38.15;;
54517;SDS011;40423;53.176;6.002;2022-12-10T15:49:47;130.13;;;37.25;;
54517;SDS011;40423;53.176;6.002;2022-12-10T15:52:16;108.68;;;35.75;;
54517;SDS011;40423;53.176;6.002;2022-12-10T15:54:44;120.63;;;36.42;;
54517;SDS011;40423;53.176;6.002;2022-12-10T15:57:45;108.28;;;35.10;;
54517;SDS011;40423;53.176;6.002;2022-12-10T16:00:30;120.95;;;44.60;;
54517;SDS011;40423;53.176;6.002;2022-12-10T16:03:02;141.98;;;49.75;;
54517;SDS011;40423;53.176;6.002;2022-12-10T16:05:31;148.80;;;45.10;;
54517;SDS011;40423;53.176;6.002;2022-12-10T16:07:59;152.63;;;53.83;;
54517;SDS011;40423;53.176;6.002;2022-12-10T16:10:31;162.50;;;46.45;;
54517;SDS011;40423;53.176;6.002;2022-12-10T16:12:58;128.65;;;42.40;;
54517;SDS011;40423;53.176;6.002;2022-12-10T16:15:27;138.55;;;41.47;;
54517;SDS011;40423;53.176;6.002;2022-12-10T16:18:03;133.90;;;38.30;;
54517;SDS011;40423;53.176;6.002;2022-12-10T16:20:30;100.35;;;34.05;;
54517;SDS011;40423;53.176;6.002;2022-12-10T16:22:58;117.38;;;36.55;;
54517;SDS011;40423;53.176;6.002;2022-12-10T16:25:28;111.65;;;36.85;;
54517;SDS011;40423;53.176;6.002;2022-12-10T16:27:57;153.15;;;44.97;;
54517;SDS011;40423;53.176;6.002;2022-12-10T16:33:23;106.80;;;35.40;;
54517;SDS011;40423;53.176;6.002;2022-12-10T16:35:54;136.77;;;34.65;;
54517;SDS011;40423;53.176;6.002;2022-12-10T16:38:21;137.20;;;36.00;;
54517;SDS011;40423;53.176;6.002;2022-12-10T16:40:50;118.72;;;35.10;;
54517;SDS011;40423;53.176;6.002;2022-12-10T16:43:16;117.47;;;33.45;;
54517;SDS011;40423;53.176;6.002;2022-12-10T16:45:48;102.85;;;31.30;;
54517;SDS011;40423;53.176;6.002;2022-12-10T16:48:14;117.43;;;30.25;;
54517;SDS011;40423;53.176;6.002;2022-12-10T16:50:40;128.98;;;32.78;;
54517;SDS011;40423;53.176;6.002;2022-12-10T16:53:17;91.43;;;29.25;;